sensor_id;sensor_type;location;lat;lon;timestamp;pressure;altitude;pressure_sealevel;temperature;humidity
41800;BME280;27468;47.460;19.034;2023-07-29T00:01:36;99958.03;;;21.57;71.56
41800;BME280;27468;47.460;19.034;2023-07-29T00:04:02;99945.16;;;21.50;71.60
41800;BME280;27468;47.460;19.034;2023-07-29T00:06:28;99914.66;;;21.27;71.93
41800;BME280;27468;47.460;19.034;2023-07-29T00:08:53;99946.88;;;21.51;72.08
41800;BME280;27468;47.460;19.034;2023-07-29T00:11:19;99953.31;;;21.48;72.28
41800;BME280;27468;47.460;19.034;2023-07-29T00:13:44;99950.50;;;21.50;72.03
41800;BME280;27468;47.460;19.034;2023-07-29T00:16:10;99953.41;;;21.47;72.37
41800;BME280;27468;47.460;19.034;2023-07-29T00:18:35;99947.31;;;21.45;72.72
41800;BME280;27468;47.460;19.034;2023-07-29T00:21:01;99949.47;;;21.39;73.10
41800;BME280;27468;47.460;19.034;2023-07-29T00:23:26;99945.19;;;21.37;72.96
41800;BME280;27468;47.460;19.034;2023-07-29T00:25:51;99945.63;;;21.31;72.96
41800;BME280;27468;47.460;19.034;2023-07-29T00:28:17;99937.06;;;21.26;73.34
41800;BME280;27468;47.460;19.034;2023-07-29T00:30:42;99938.63;;;21.16;73.27
41800;BME280;27468;47.460;19.034;2023-07-29T00:33:08;99930.91;;;21.11;73.48
41800;BME280;27468;47.460;19.034;2023-07-29T00:35:34;99923.31;;;21.05;73.21
41800;BME280;27468;47.460;19.034;2023-07-29T00:37:59;99938.97;;;21.11;73.95
41800;BME280;27468;47.460;19.034;2023-07-29T00:40:27;99948.72;;;21.12;74.32
41800;BME280;27468;47.460;19.034;2023-07-29T00:42:53;99941.63;;;20.98;74.56
41800;BME280;27468;47.460;19.034;2023-07-29T00:45:19;99944.53;;;20.95;75.00
41800;BME280;27468;47.460;19.034;2023-07-29T00:47:44;99947.22;;;20.95;74.13
41800;BME280;27468;47.460;19.034;2023-07-29T00:50:11;99926.09;;;20.91;73.92
41800;BME280;27468;47.460;19.034;2023-07-29T00:52:37;99935.09;;;20.90;73.86
41800;BME280;27468;47.460;19.034;2023-07-29T00:55:03;99917.31;;;20.76;74.05
41800;BME280;27468;47.460;19.034;2023-07-29T00:57:29;99923.53;;;20.76;74.55
41800;BME280;27468;47.460;19.034;2023-07-29T00:59:55;99922.03;;;20.72;74.23
41800;BME280;27468;47.460;19.034;2023-07-29T01:02:21;99939.06;;;20.71;75.38
41800;BME280;27468;47.460;19.034;2023-07-29T01:04:52;99885.88;;;20.40;75.16
41800;BME280;27468;47.460;19.034;2023-07-29T01:07:27;99940.66;;;20.61;75.25
41800;BME280;27468;47.460;19.034;2023-07-29T01:12:54;99931.94;;;20.45;75.95
41800;BME280;27468;47.460;19.034;2023-07-29T01:15:33;99935.28;;;20.49;75.59
41800;BME280;27468;47.460;19.034;2023-07-29T01:18:23;99931.09;;;20.44;75.60
41800;BME280;27468;47.460;19.034;2023-07-29T01:20:53;99934.94;;;20.40;75.76
41800;BME280;27468;47.460;19.034;2023-07-29T01:23:26;99906.47;;;20.25;75.49
41800;BME280;27468;47.460;19.034;2023-07-29T01:25:53;99923.28;;;20.27;75.83
41800;BME280;27468;47.460;19.034;2023-07-29T01:28:19;99878.59;;;20.02;75.34
41800;BME280;27468;47.460;19.034;2023-07-29T01:30:48;99925.09;;;20.27;76.32
41800;BME280;27468;47.460;19.034;2023-07-29T01:33:18;99895.31;;;20.06;76.34
41800;BME280;27468;47.460;19.034;2023-07-29T01:35:48;99945.47;;;20.29;76.58
41800;BME280;27468;47.460;19.034;2023-07-29T01:38:20;99938.50;;;20.27;76.65
41800;BME280;27468;47.460;19.034;2023-07-29T01:40:50;99923.38;;;20.13;77.36
41800;BME280;27468;47.460;19.034;2023-07-29T01:43:16;99905.09;;;19.93;77.56
41800;BME280;27468;47.460;19.034;2023-07-29T01:45:44;99940.28;;;20.14;76.95
41800;BME280;27468;47.460;19.034;2023-07-29T01:48:09;99951.66;;;20.17;76.70
41800;BME280;27468;47.460;19.034;2023-07-29T01:50:35;99925.81;;;20.03;77.30
41800;BME280;27468;47.460;19.034;2023-07-29T01:53:00;99934.69;;;20.04;77.56
41800;BME280;27468;47.460;19.034;2023-07-29T01:55:26;99939.38;;;20.00;77.46
41800;BME280;27468;47.460;19.034;2023-07-29T01:57:52;99934.22;;;19.97;77.24
41800;BME280;27468;47.460;19.034;2023-07-29T02:00:20;99925.75;;;19.91;77.38
41800;BME280;27468;47.460;19.034;2023-07-29T02:02:46;99947.50;;;19.99;77.40
41800;BME280;27468;47.460;19.034;2023-07-29T02:05:11;99928.06;;;19.83;77.77
41800;BME280;27468;47.460;19.034;2023-07-29T02:07:37;99928.47;;;19.76;77.75
41800;BME280;27468;47.460;19.034;2023-07-29T02:10:02;99940.09;;;19.90;77.17
41800;BME280;27468;47.460;19.034;2023-07-29T02:12:28;99929.78;;;19.84;77.67
41800;BME280;27468;47.460;19.034;2023-07-29T02:14:53;99887.44;;;19.49;77.47
41800;BME280;27468;47.460;19.034;2023-07-29T02:17:19;99941.84;;;19.76;77.79
41800;BME280;27468;47.460;19.034;2023-07-29T02:19:44;99895.56;;;19.48;77.64
41800;BME280;27468;47.460;19.034;2023-07-29T02:22:13;99921.44;;;19.61;77.96
41800;BME280;27468;47.460;19.034;2023-07-29T02:24:39;99936.00;;;19.70;78.02
41800;BME280;27468;47.460;19.034;2023-07-29T02:27:05;99946.91;;;19.67;77.47
41800;BME280;27468;47.460;19.034;2023-07-29T02:29:30;99948.81;;;19.65;77.72
41800;BME280;27468;47.460;19.034;2023-07-29T02:31:55;99955.16;;;19.64;78.10
41800;BME280;27468;47.460;19.034;2023-07-29T02:34:21;99942.63;;;19.50;78.42
41800;BME280;27468;47.460;19.034;2023-07-29T02:36:46;99945.41;;;19.49;78.50
41800;BME280;27468;47.460;19.034;2023-07-29T02:39:12;99939.03;;;19.51;77.87
41800;BME280;27468;47.460;19.034;2023-07-29T02:41:37;99893.47;;;19.24;78.18
41800;BME280;27468;47.460;19.034;2023-07-29T02:44:03;99942.91;;;19.45;78.08
41800;BME280;27468;47.460;19.034;2023-07-29T02:46:28;99928.41;;;19.35;78.47
41800;BME280;27468;47.460;19.034;2023-07-29T02:48:54;99921.84;;;19.27;78.73
41800;BME280;27468;47.460;19.034;2023-07-29T02:51:19;99947.69;;;19.40;78.67
41800;BME280;27468;47.460;19.034;2023-07-29T02:53:44;99935.56;;;19.21;79.08
41800;BME280;27468;47.460;19.034;2023-07-29T02:56:10;99950.09;;;19.31;78.67
41800;BME280;27468;47.460;19.034;2023-07-29T02:58:37;99924.13;;;19.19;78.84
41800;BME280;27468;47.460;19.034;2023-07-29T03:01:03;99950.47;;;19.25;78.94
41800;BME280;27468;47.460;19.034;2023-07-29T03:03:29;99954.00;;;19.25;79.13
41800;BME280;27468;47.460;19.034;2023-07-29T03:06:08;99949.78;;;19.21;78.83
41800;BME280;27468;47.460;19.034;2023-07-29T03:08:34;99949.78;;;19.21;78.93
41800;BME280;27468;47.460;19.034;2023-07-29T03:11:09;99963.81;;;19.25;79.37
41800;BME280;27468;47.460;19.034;2023-07-29T03:13:34;99948.47;;;19.14;78.97
41800;BME280;27468;47.460;19.034;2023-07-29T03:16:07;99958.78;;;19.20;79.13
41800;BME280;27468;47.460;19.034;2023-07-29T03:18:33;99944.16;;;19.11;79.74
41800;BME280;27468;47.460;19.034;2023-07-29T03:20:59;99953.63;;;19.17;79.83
41800;BME280;27468;47.460;19.034;2023-07-29T03:23:24;99947.34;;;19.04;80.09
41800;BME280;27468;47.460;19.034;2023-07-29T03:25:50;99957.44;;;19.13;79.91
41800;BME280;27468;47.460;19.034;2023-07-29T03:28:16;99903.31;;;18.81;79.80
41800;BME280;27468;47.460;19.034;2023-07-29T03:30:42;99920.41;;;18.93;80.06
41800;BME280;27468;47.460;19.034;2023-07-29T03:33:07;99909.06;;;18.89;79.84
41800;BME280;27468;47.460;19.034;2023-07-29T03:35:33;99951.13;;;19.14;79.91
41800;BME280;27468;47.460;19.034;2023-07-29T03:37:58;99935.22;;;18.98;80.25
41800;BME280;27468;47.460;19.034;2023-07-29T03:40:23;99902.28;;;18.84;79.90
41800;BME280;27468;47.460;19.034;2023-07-29T03:42:49;99921.47;;;18.90;80.41
41800;BME280;27468;47.460;19.034;2023-07-29T03:45:14;99963.44;;;19.17;80.19
41800;BME280;27468;47.460;19.034;2023-07-29T03:47:40;99953.63;;;19.17;79.96
41800;BME280;27468;47.460;19.034;2023-07-29T03:50:06;99923.75;;;18.96;80.16
41800;BME280;27468;47.460;19.034;2023-07-29T03:52:31;99924.44;;;19.00;80.21
41800;BME280;27468;47.460;19.034;2023-07-29T03:54:57;99971.00;;;19.24;80.24
41800;BME280;27468;47.460;19.034;2023-07-29T03:57:22;99971.66;;;19.28;80.73
41800;BME280;27468;47.460;19.034;2023-07-29T03:59:48;99964.59;;;19.27;80.86
41800;BME280;27468;47.460;19.034;2023-07-29T04:02:13;99961.91;;;19.27;80.60
41800;BME280;27468;47.460;19.034;2023-07-29T04:04:39;99960.09;;;19.27;80.90
41800;BME280;27468;47.460;19.034;2023-07-29T04:07:07;99966.78;;;19.34;80.55
41800;BME280;27468;47.460;19.034;2023-07-29T04:09:32;99968.13;;;19.41;80.35
41800;BME280;27468;47.460;19.034;2023-07-29T04:11:58;99968.06;;;19.57;79.96
41800;BME280;27468;47.460;19.034;2023-07-29T04:14:23;99966.50;;;19.67;79.14
41800;BME280;27468;47.460;19.034;2023-07-29T04:16:48;99961.31;;;19.78;78.39
41800;BME280;27468;47.460;19.034;2023-07-29T04:19:14;99944.41;;;19.78;77.59
41800;BME280;27468;47.460;19.034;2023-07-29T04:21:39;99958.78;;;20.04;77.10
41800;BME280;27468;47.460;19.034;2023-07-29T04:24:05;99966.31;;;20.11;76.93
41800;BME280;27468;47.460;19.034;2023-07-29T04:26:30;99967.19;;;20.25;76.72
41800;BME280;27468;47.460;19.034;2023-07-29T04:28:55;99973.97;;;20.57;75.52
41800;BME280;27468;47.460;19.034;2023-07-29T04:31:21;99981.94;;;20.97;73.84
41800;BME280;27468;47.460;19.034;2023-07-29T04:33:46;99963.38;;;21.57;73.18
41800;BME280;27468;47.460;19.034;2023-07-29T04:36:12;99950.88;;;22.53;71.35
41800;BME280;27468;47.460;19.034;2023-07-29T04:38:37;99947.31;;;23.56;67.85
41800;BME280;27468;47.460;19.034;2023-07-29T04:41:03;99906.50;;;24.26;63.99
41800;BME280;27468;47.460;19.034;2023-07-29T04:43:32;99961.75;;;24.94;61.67
41800;BME280;27468;47.460;19.034;2023-07-29T04:45:58;99955.13;;;24.78;59.84
41800;BME280;27468;47.460;19.034;2023-07-29T04:48:23;99926.94;;;24.29;59.97
41800;BME280;27468;47.460;19.034;2023-07-29T04:50:49;99948.34;;;24.30;59.65
41800;BME280;27468;47.460;19.034;2023-07-29T04:53:14;99950.84;;;24.75;59.03
41800;BME280;27468;47.460;19.034;2023-07-29T04:55:43;99959.78;;;25.38;58.15
41800;BME280;27468;47.460;19.034;2023-07-29T04:58:09;99951.16;;;26.04;55.08
41800;BME280;27468;47.460;19.034;2023-07-29T05:00:34;99921.63;;;26.60;52.17
41800;BME280;27468;47.460;19.034;2023-07-29T05:02:59;99939.47;;;27.19;49.48
41800;BME280;27468;47.460;19.034;2023-07-29T05:05:26;99942.09;;;27.75;47.14
41800;BME280;27468;47.460;19.034;2023-07-29T05:07:51;99947.53;;;28.20;45.81
41800;BME280;27468;47.460;19.034;2023-07-29T05:10:17;99954.44;;;28.68;45.44
41800;BME280;27468;47.460;19.034;2023-07-29T05:12:42;99926.00;;;28.98;42.90
41800;BME280;27468;47.460;19.034;2023-07-29T05:15:08;99949.69;;;29.14;43.65
41800;BME280;27468;47.460;19.034;2023-07-29T05:17:33;99963.91;;;28.82;43.36
41800;BME280;27468;47.460;19.034;2023-07-29T05:19:59;99923.97;;;28.03;44.78
41800;BME280;27468;47.460;19.034;2023-07-29T05:22:24;99962.06;;;27.74;46.08
41800;BME280;27468;47.460;19.034;2023-07-29T05:24:50;99952.91;;;27.48;46.93
41800;BME280;27468;47.460;19.034;2023-07-29T05:27:15;99961.94;;;27.29;47.42
41800;BME280;27468;47.460;19.034;2023-07-29T05:29:41;99970.38;;;27.16;48.10
41800;BME280;27468;47.460;19.034;2023-07-29T05:32:06;99975.00;;;26.96;49.14
41800;BME280;27468;47.460;19.034;2023-07-29T05:34:32;99960.75;;;26.65;49.66
41800;BME280;27468;47.460;19.034;2023-07-29T05:36:57;99978.13;;;26.44;50.29
41800;BME280;27468;47.460;19.034;2023-07-29T05:39:23;99982.63;;;26.24;50.53
41800;BME280;27468;47.460;19.034;2023-07-29T05:41:49;99969.22;;;25.93;51.22
41800;BME280;27468;47.460;19.034;2023-07-29T05:44:15;99996.09;;;26.05;52.02
41800;BME280;27468;47.460;19.034;2023-07-29T05:46:40;99990.56;;;25.96;52.07
41800;BME280;27468;47.460;19.034;2023-07-29T05:49:05;99945.41;;;25.68;52.27
41800;BME280;27468;47.460;19.034;2023-07-29T05:51:31;99987.84;;;25.96;52.20
41800;BME280;27468;47.460;19.034;2023-07-29T05:53:56;100001.22;;;25.98;52.54
41800;BME280;27468;47.460;19.034;2023-07-29T05:56:22;99945.13;;;25.71;52.08
41800;BME280;27468;47.460;19.034;2023-07-29T05:58:47;99987.56;;;25.90;52.63
41800;BME280;27468;47.460;19.034;2023-07-29T06:01:12;100003.59;;;25.82;52.40
41800;BME280;27468;47.460;19.034;2023-07-29T06:03:38;100015.09;;;25.84;52.48
41800;BME280;27468;47.460;19.034;2023-07-29T06:06:03;100018.31;;;25.68;52.94
41800;BME280;27468;47.460;19.034;2023-07-29T06:08:28;100007.56;;;25.57;53.67
41800;BME280;27468;47.460;19.034;2023-07-29T06:10:54;100025.69;;;25.66;54.08
41800;BME280;27468;47.460;19.034;2023-07-29T06:13:19;99998.53;;;25.37;54.38
41800;BME280;27468;47.460;19.034;2023-07-29T06:15:45;100029.56;;;25.52;54.72
41800;BME280;27468;47.460;19.034;2023-07-29T06:18:10;100027.13;;;25.49;55.13
41800;BME280;27468;47.460;19.034;2023-07-29T06:20:36;100022.25;;;25.33;54.83
41800;BME280;27468;47.460;19.034;2023-07-29T06:23:01;100033.69;;;25.26;56.16
41800;BME280;27468;47.460;19.034;2023-07-29T06:25:27;100008.81;;;25.22;56.08
41800;BME280;27468;47.460;19.034;2023-07-29T06:27:52;99989.09;;;24.90;56.77
41800;BME280;27468;47.460;19.034;2023-07-29T06:30:18;100009.06;;;24.98;56.81
41800;BME280;27468;47.460;19.034;2023-07-29T06:32:43;100035.13;;;25.09;56.58
41800;BME280;27468;47.460;19.034;2023-07-29T06:35:08;100003.44;;;24.90;56.30
41800;BME280;27468;47.460;19.034;2023-07-29T06:37:34;99960.88;;;24.52;57.37
41800;BME280;27468;47.460;19.034;2023-07-29T06:39:59;99981.69;;;24.61;57.54
41800;BME280;27468;47.460;19.034;2023-07-29T06:42:25;100033.09;;;24.90;57.79
41800;BME280;27468;47.460;19.034;2023-07-29T06:44:50;100000.75;;;24.69;58.69
41800;BME280;27468;47.460;19.034;2023-07-29T06:47:15;100028.09;;;24.86;58.09
41800;BME280;27468;47.460;19.034;2023-07-29T06:49:41;99952.66;;;24.54;57.65
41800;BME280;27468;47.460;19.034;2023-07-29T06:52:06;100016.19;;;24.99;57.80
41800;BME280;27468;47.460;19.034;2023-07-29T06:54:32;100028.38;;;25.15;58.33
41800;BME280;27468;47.460;19.034;2023-07-29T06:56:58;100025.34;;;25.08;58.03
41800;BME280;27468;47.460;19.034;2023-07-29T06:59:23;100025.94;;;25.12;57.55
41800;BME280;27468;47.460;19.034;2023-07-29T07:01:50;100031.78;;;25.17;57.13
41800;BME280;27468;47.460;19.034;2023-07-29T07:04:15;100016.91;;;25.22;56.87
41800;BME280;27468;47.460;19.034;2023-07-29T07:06:40;100003.94;;;25.16;56.22
41800;BME280;27468;47.460;19.034;2023-07-29T07:09:06;100007.09;;;25.21;55.97
41800;BME280;27468;47.460;19.034;2023-07-29T07:11:32;100016.31;;;25.19;56.50
41800;BME280;27468;47.460;19.034;2023-07-29T07:13:57;100014.53;;;25.29;56.01
41800;BME280;27468;47.460;19.034;2023-07-29T07:16:22;99969.16;;;25.13;55.29
41800;BME280;27468;47.460;19.034;2023-07-29T07:18:48;100004.94;;;25.46;55.59
41800;BME280;27468;47.460;19.034;2023-07-29T07:21:13;100006.66;;;25.47;55.46
41800;BME280;27468;47.460;19.034;2023-07-29T07:23:39;99997.84;;;25.65;55.28
41800;BME280;27468;47.460;19.034;2023-07-29T07:26:04;99985.50;;;25.73;55.37
41800;BME280;27468;47.460;19.034;2023-07-29T07:28:30;100019.69;;;26.03;53.86
41800;BME280;27468;47.460;19.034;2023-07-29T07:30:55;99999.66;;;26.05;53.63
41800;BME280;27468;47.460;19.034;2023-07-29T07:33:21;99972.78;;;26.04;52.20
41800;BME280;27468;47.460;19.034;2023-07-29T07:35:47;99973.22;;;26.18;52.66
41800;BME280;27468;47.460;19.034;2023-07-29T07:38:12;99979.22;;;26.22;51.78
41800;BME280;27468;47.460;19.034;2023-07-29T07:40:38;99971.69;;;26.25;50.50
41800;BME280;27468;47.460;19.034;2023-07-29T07:43:03;99995.78;;;26.48;51.64
41800;BME280;27468;47.460;19.034;2023-07-29T07:45:28;100011.13;;;26.67;51.29
41800;BME280;27468;47.460;19.034;2023-07-29T07:47:54;99951.81;;;26.46;50.65
41800;BME280;27468;47.460;19.034;2023-07-29T07:50:20;99993.34;;;26.83;50.15
41800;BME280;27468;47.460;19.034;2023-07-29T07:52:45;99992.34;;;26.84;50.54
41800;BME280;27468;47.460;19.034;2023-07-29T07:55:11;99954.63;;;26.63;50.41
41800;BME280;27468;47.460;19.034;2023-07-29T07:57:36;99980.41;;;26.77;50.45
41800;BME280;27468;47.460;19.034;2023-07-29T08:00:02;99981.97;;;26.80;47.39
41800;BME280;27468;47.460;19.034;2023-07-29T08:02:29;99978.69;;;26.67;48.04
41800;BME280;27468;47.460;19.034;2023-07-29T08:04:54;99985.38;;;26.72;49.08
41800;BME280;27468;47.460;19.034;2023-07-29T08:07:20;99981.81;;;26.72;49.53
41800;BME280;27468;47.460;19.034;2023-07-29T08:09:45;99992.06;;;26.68;49.59
41800;BME280;27468;47.460;19.034;2023-07-29T08:12:10;99960.66;;;26.48;49.08
41800;BME280;27468;47.460;19.034;2023-07-29T08:14:36;99965.75;;;26.60;48.52
41800;BME280;27468;47.460;19.034;2023-07-29T08:17:01;99976.13;;;26.65;48.53
41800;BME280;27468;47.460;19.034;2023-07-29T08:19:27;99934.88;;;26.44;47.58
41800;BME280;27468;47.460;19.034;2023-07-29T08:21:52;99967.88;;;26.67;47.89
41800;BME280;27468;47.460;19.034;2023-07-29T08:24:18;99983.09;;;26.77;47.24
41800;BME280;27468;47.460;19.034;2023-07-29T08:26:43;99968.16;;;26.63;47.17
41800;BME280;27468;47.460;19.034;2023-07-29T08:29:08;99982.97;;;26.79;46.12
41800;BME280;27468;47.460;19.034;2023-07-29T08:31:34;99964.75;;;26.71;47.13
41800;BME280;27468;47.460;19.034;2023-07-29T08:34:00;99976.56;;;26.70;48.09
41800;BME280;27468;47.460;19.034;2023-07-29T08:36:26;99950.50;;;26.59;47.69
41800;BME280;27468;47.460;19.034;2023-07-29T08:38:51;99949.94;;;26.65;45.50
41800;BME280;27468;47.460;19.034;2023-07-29T08:41:21;99980.81;;;26.82;44.83
41800;BME280;27468;47.460;19.034;2023-07-29T08:43:58;99980.53;;;26.85;44.79
41800;BME280;27468;47.460;19.034;2023-07-29T08:46:26;99926.78;;;26.53;45.48
41800;BME280;27468;47.460;19.034;2023-07-29T08:48:53;99940.38;;;26.81;44.60
41800;BME280;27468;47.460;19.034;2023-07-29T08:51:21;99951.06;;;26.82;45.54
41800;BME280;27468;47.460;19.034;2023-07-29T08:53:47;99980.53;;;26.95;45.39
41800;BME280;27468;47.460;19.034;2023-07-29T08:56:12;99964.31;;;27.05;44.94
41800;BME280;27468;47.460;19.034;2023-07-29T08:58:39;99963.88;;;27.09;44.08
41800;BME280;27468;47.460;19.034;2023-07-29T09:01:05;99966.72;;;27.08;44.14
41800;BME280;27468;47.460;19.034;2023-07-29T09:03:31;99946.94;;;26.98;44.70
41800;BME280;27468;47.460;19.034;2023-07-29T09:05:58;99962.47;;;27.05;45.16
41800;BME280;27468;47.460;19.034;2023-07-29T09:08:27;99970.69;;;27.13;44.80
41800;BME280;27468;47.460;19.034;2023-07-29T09:10:53;99954.34;;;27.05;44.64
41800;BME280;27468;47.460;19.034;2023-07-29T09:13:19;99952.44;;;27.15;44.86
41800;BME280;27468;47.460;19.034;2023-07-29T09:15:45;99961.72;;;27.13;45.28
41800;BME280;27468;47.460;19.034;2023-07-29T09:18:15;99936.53;;;27.12;44.66
41800;BME280;27468;47.460;19.034;2023-07-29T09:20:41;99951.84;;;27.21;44.35
41800;BME280;27468;47.460;19.034;2023-07-29T09:23:08;99917.03;;;27.09;43.67
41800;BME280;27468;47.460;19.034;2023-07-29T09:25:37;99930.75;;;27.25;43.56
41800;BME280;27468;47.460;19.034;2023-07-29T09:28:11;99940.84;;;27.33;43.50
41800;BME280;27468;47.460;19.034;2023-07-29T09:30:41;99901.44;;;27.20;43.80
41800;BME280;27468;47.460;19.034;2023-07-29T09:33:08;99903.53;;;27.26;43.83
41800;BME280;27468;47.460;19.034;2023-07-29T09:35:35;99886.81;;;27.13;43.18
41800;BME280;27468;47.460;19.034;2023-07-29T09:38:05;99936.75;;;27.56;43.64
41800;BME280;27468;47.460;19.034;2023-07-29T09:40:38;99933.91;;;27.57;43.99
41800;BME280;27468;47.460;19.034;2023-07-29T09:43:05;99908.16;;;27.44;43.98
41800;BME280;27468;47.460;19.034;2023-07-29T09:45:33;99939.72;;;27.72;43.99
41800;BME280;27468;47.460;19.034;2023-07-29T09:47:59;99908.28;;;27.52;42.75
41800;BME280;27468;47.460;19.034;2023-07-29T09:50:25;99936.44;;;27.69;42.05
41800;BME280;27468;47.460;19.034;2023-07-29T09:52:52;99920.50;;;27.66;42.79
41800;BME280;27468;47.460;19.034;2023-07-29T09:55:19;99931.81;;;27.79;43.08
41800;BME280;27468;47.460;19.034;2023-07-29T09:57:45;99931.06;;;27.86;42.66
41800;BME280;27468;47.460;19.034;2023-07-29T10:00:11;99894.28;;;27.66;42.32
41800;BME280;27468;47.460;19.034;2023-07-29T10:02:41;99881.34;;;27.78;41.26
41800;BME280;27468;47.460;19.034;2023-07-29T10:05:08;99929.16;;;28.14;41.79
41800;BME280;27468;47.460;19.034;2023-07-29T10:07:38;99906.47;;;28.15;40.77
41800;BME280;27468;47.460;19.034;2023-07-29T10:10:05;99923.56;;;28.25;40.09
41800;BME280;27468;47.460;19.034;2023-07-29T10:12:31;99883.41;;;28.11;40.46
41800;BME280;27468;47.460;19.034;2023-07-29T10:15:03;99888.47;;;28.24;39.51
41800;BME280;27468;47.460;19.034;2023-07-29T10:17:30;99925.31;;;28.52;38.52
41800;BME280;27468;47.460;19.034;2023-07-29T10:19:58;99908.25;;;28.42;37.69
41800;BME280;27468;47.460;19.034;2023-07-29T10:22:25;99882.09;;;28.33;38.12
41800;BME280;27468;47.460;19.034;2023-07-29T10:24:54;99913.75;;;28.50;38.42
41800;BME280;27468;47.460;19.034;2023-07-29T10:27:23;99919.25;;;28.58;39.01
41800;BME280;27468;47.460;19.034;2023-07-29T10:29:50;99916.06;;;28.63;38.12
41800;BME280;27468;47.460;19.034;2023-07-29T10:32:16;99928.06;;;28.78;38.54
41800;BME280;27468;47.460;19.034;2023-07-29T10:34:41;99919.59;;;28.81;38.04
41800;BME280;27468;47.460;19.034;2023-07-29T10:37:08;99926.88;;;28.99;38.03
41800;BME280;27468;47.460;19.034;2023-07-29T10:39:38;99885.94;;;28.92;37.13
41800;BME280;27468;47.460;19.034;2023-07-29T10:42:06;99910.44;;;29.34;37.94
41800;BME280;27468;47.460;19.034;2023-07-29T10:49:40;99907.53;;;30.12;36.64
41800;BME280;27468;47.460;19.034;2023-07-29T10:52:06;99873.88;;;30.13;36.57
41800;BME280;27468;47.460;19.034;2023-07-29T10:54:44;99859.78;;;30.26;35.46
41800;BME280;27468;47.460;19.034;2023-07-29T10:57:14;99902.47;;;30.66;34.81
41800;BME280;27468;47.460;19.034;2023-07-29T10:59:56;99878.31;;;30.54;34.71
41800;BME280;27468;47.460;19.034;2023-07-29T11:02:28;99909.78;;;30.73;35.04
41800;BME280;27468;47.460;19.034;2023-07-29T11:04:54;99897.19;;;30.64;35.72
41800;BME280;27468;47.460;19.034;2023-07-29T11:07:21;99907.41;;;30.70;35.23
41800;BME280;27468;47.460;19.034;2023-07-29T11:10:01;99906.88;;;30.75;35.40
41800;BME280;27468;47.460;19.034;2023-07-29T11:12:43;99851.63;;;30.42;35.57
41800;BME280;27468;47.460;19.034;2023-07-29T11:17:39;99912.50;;;30.81;35.05
41800;BME280;27468;47.460;19.034;2023-07-29T11:20:05;99894.81;;;30.85;34.50
41800;BME280;27468;47.460;19.034;2023-07-29T11:22:32;99920.31;;;30.84;35.20
41800;BME280;27468;47.460;19.034;2023-07-29T11:24:57;99886.31;;;30.64;35.02
41800;BME280;27468;47.460;19.034;2023-07-29T11:27:23;99886.00;;;30.59;35.56
41800;BME280;27468;47.460;19.034;2023-07-29T11:29:48;99896.84;;;30.75;36.22
41800;BME280;27468;47.460;19.034;2023-07-29T11:32:15;99904.84;;;30.85;36.11
41800;BME280;27468;47.460;19.034;2023-07-29T11:34:42;99861.81;;;30.64;36.21
41800;BME280;27468;47.460;19.034;2023-07-29T11:37:10;99908.56;;;31.00;35.87
41800;BME280;27468;47.460;19.034;2023-07-29T11:39:40;99861.28;;;30.85;35.24
41800;BME280;27468;47.460;19.034;2023-07-29T11:42:07;99893.06;;;31.09;35.26
41800;BME280;27468;47.460;19.034;2023-07-29T11:44:32;99887.97;;;31.06;34.73
41800;BME280;27468;47.460;19.034;2023-07-29T11:46:57;99856.84;;;30.92;34.25
41800;BME280;27468;47.460;19.034;2023-07-29T11:49:23;99896.13;;;31.06;34.66
41800;BME280;27468;47.460;19.034;2023-07-29T11:51:48;99851.81;;;30.57;35.50
41800;BME280;27468;47.460;19.034;2023-07-29T11:54:15;99846.69;;;30.45;35.49
41800;BME280;27468;47.460;19.034;2023-07-29T11:56:41;99868.28;;;30.47;36.07
41800;BME280;27468;47.460;19.034;2023-07-29T11:59:07;99852.31;;;30.28;35.88
41800;BME280;27468;47.460;19.034;2023-07-29T12:01:33;99857.56;;;30.21;36.35
41800;BME280;27468;47.460;19.034;2023-07-29T12:03:58;99879.50;;;30.44;36.27
41800;BME280;27468;47.460;19.034;2023-07-29T12:06:25;99872.56;;;30.58;36.32
41800;BME280;27468;47.460;19.034;2023-07-29T12:08:51;99836.66;;;30.54;35.47
41800;BME280;27468;47.460;19.034;2023-07-29T12:11:16;99844.31;;;30.50;35.63
41800;BME280;27468;47.460;19.034;2023-07-29T12:13:43;99830.72;;;30.42;35.29
41800;BME280;27468;47.460;19.034;2023-07-29T12:16:09;99854.16;;;30.68;35.35
41800;BME280;27468;47.460;19.034;2023-07-29T12:18:35;99834.63;;;30.56;34.92
41800;BME280;27468;47.460;19.034;2023-07-29T12:21:02;99873.53;;;30.81;35.12
41800;BME280;27468;47.460;19.034;2023-07-29T12:23:29;99877.59;;;30.93;34.20
41800;BME280;27468;47.460;19.034;2023-07-29T12:25:59;99867.41;;;30.87;34.85
41800;BME280;27468;47.460;19.034;2023-07-29T12:28:25;99860.09;;;30.79;34.95
41800;BME280;27468;47.460;19.034;2023-07-29T12:30:54;99844.66;;;30.64;35.52
41800;BME280;27468;47.460;19.034;2023-07-29T12:33:33;99862.47;;;30.82;35.72
41800;BME280;27468;47.460;19.034;2023-07-29T12:35:59;99833.41;;;30.75;35.06
41800;BME280;27468;47.460;19.034;2023-07-29T12:38:27;99856.34;;;30.88;35.38
41800;BME280;27468;47.460;19.034;2023-07-29T12:40:53;99866.22;;;30.90;35.19
41800;BME280;27468;47.460;19.034;2023-07-29T12:43:19;99845.97;;;30.84;34.87
41800;BME280;27468;47.460;19.034;2023-07-29T12:45:44;99857.88;;;30.91;34.51
41800;BME280;27468;47.460;19.034;2023-07-29T12:48:10;99859.72;;;31.07;33.72
41800;BME280;27468;47.460;19.034;2023-07-29T12:50:36;99860.94;;;30.88;34.74
41800;BME280;27468;47.460;19.034;2023-07-29T12:53:02;99855.19;;;30.75;35.26
41800;BME280;27468;47.460;19.034;2023-07-29T12:55:27;99832.41;;;30.43;35.28